Time;durP1;ratioP1;P1;durP2;ratioP2;P2;SDS_P1;SDS_P2;PMS_P1;PMS_P2;Temp;Humidity;BMP_temperature;BMP_pressure;BME280_temperature;BME280_humidity;BME280_pressure;Samples;Min_cycle;Max_cycle;Signal;HPM_P1;HPM_P2
2022/09/26 00:00:10;;;;;;;11.03;10.13;;;;;;;20.88;40.13;95007.34;6165174;28;104760;-77
2022/09/26 00:03:13;;;;;;;11.30;10.40;;;;;;;20.84;40.43;95009.03;6164832;28;103578;-78
2022/09/26 00:06:17;;;;;;;11.47;10.57;;;;;;;20.88;40.05;95031.28;6164031;28;103730;-80
2022/09/26 00:09:22;;;;;;;10.77;9.97;;;;;;;20.89;40.23;95032.84;6157543;28;104571;-79
2022/09/26 00:12:27;;;;;;;10.63;9.83;;;;;;;20.87;40.25;95026.25;6164670;28;104214;-78
2022/09/26 00:15:31;;;;;;;10.90;9.90;;;;;;;20.86;40.57;95030.78;6140373;28;103307;-79
2022/09/26 00:18:34;;;;;;;11.03;10.03;;;;;;;20.86;40.34;95019.38;6145035;28;103366;-79
2022/09/26 00:21:38;;;;;;;10.60;9.70;;;;;;;20.87;40.08;95023.59;6159798;28;104345;-78
2022/09/26 00:24:41;;;;;;;10.40;9.50;;;;;;;20.84;40.26;95010.91;6164104;28;103397;-78
2022/09/26 00:27:46;;;;;;;10.57;9.77;;;;;;;20.82;40.53;95013.03;6164152;28;104160;-78
2022/09/26 00:30:49;;;;;;;10.90;10.00;;;;;;;20.83;40.33;95004.75;6156990;28;103453;-78
2022/09/26 00:33:52;;;;;;;9.73;8.93;;;;;;;20.82;40.42;95013.81;6164155;28;106961;-78
2022/09/26 00:36:56;;;;;;;10.50;9.70;;;;;;;20.84;40.06;95022.31;6165320;28;103712;-78
2022/09/26 00:39:59;;;;;;;9.70;9.00;;;;;;;20.85;40.20;95007.94;6164786;28;103894;-78
2022/09/26 00:43:03;;;;;;;10.70;9.90;;;;;;;20.84;40.32;95002.91;6158768;28;103375;-76
2022/09/26 00:46:21;;;;;;;10.47;9.67;;;;;;;20.80;40.17;95008.03;6165483;28;106244;-79
2022/09/26 00:49:28;;;;;;;10.73;9.83;;;;;;;20.80;40.03;95001.91;6163920;28;103458;-78
2022/09/26 00:52:36;;;;;;;9.67;8.97;;;;;;;20.79;40.32;95001.13;6163150;28;102959;-78
2022/09/26 00:55:44;;;;;;;10.27;9.47;;;;;;;20.82;40.30;95005.06;6158400;28;104973;-77
2022/09/26 00:58:54;;;;;;;10.40;9.60;;;;;;;20.81;39.98;95001.63;6163763;28;103698;-77
2022/09/26 01:01:59;;;;;;;9.70;8.90;;;;;;;20.81;40.11;95003.50;6164314;28;103378;-78
2022/09/26 01:05:04;;;;;;;10.27;9.47;;;;;;;20.78;40.47;94991.59;6157247;28;103551;-77
2022/09/26 01:08:08;;;;;;;10.00;9.20;;;;;;;20.77;40.36;94994.53;6138898;28;103696;-78
2022/09/26 01:11:13;;;;;;;10.87;9.10;;;;;;;20.75;40.52;94986.06;6162392;28;103414;-78
2022/09/26 01:14:21;;;;;;;10.47;9.67;;;;;;;20.77;40.45;94983.91;6139618;28;103302;-78
2022/09/26 01:17:26;;;;;;;10.00;9.20;;;;;;;20.75;40.47;94981.53;6132382;28;103124;-77
2022/09/26 01:20:38;;;;;;;9.37;8.67;;;;;;;20.77;40.29;94990.00;6156982;28;107155;-77
2022/09/26 01:24:14;;;;;;;9.17;8.47;;;;;;;20.76;40.50;94975.16;6163267;28;105931;-78
2022/09/26 01:27:43;;;;;;;9.50;8.70;;;;;;;20.76;40.29;94972.47;6160962;28;103124;-78
2022/09/26 01:30:53;;;;;;;9.80;9.07;;;;;;;20.74;40.16;94976.53;6134271;28;104637;-77
2022/09/26 01:34:02;;;;;;;10.07;9.27;;;;;;;20.74;40.23;94971.22;6163626;28;102534;-79
2022/09/26 01:37:18;;;;;;;9.27;8.57;;;;;;;20.73;40.16;94977.63;6163410;28;105344;-80
2022/09/26 01:40:28;;;;;;;9.40;8.70;;;;;;;20.72;40.36;94979.50;6155977;28;103053;-79
2022/09/26 01:43:40;;;;;;;8.63;8.00;;;;;;;20.75;40.23;94992.19;6163833;28;103413;-82
2022/09/26 01:46:51;;;;;;;9.10;8.40;;;;;;;20.76;40.41;94991.09;6163563;28;103470;-78
2022/09/26 01:50:00;;;;;;;9.23;8.50;;;;;;;20.76;40.17;94985.00;6138558;28;103352;-77
2022/09/26 01:53:08;;;;;;;9.73;8.93;;;;;;;20.73;40.30;94973.09;6139710;28;104423;-80
2022/09/26 01:56:14;;;;;;;8.87;8.23;;;;;;;20.75;40.27;94976.22;6155001;28;103281;-77
2022/09/26 01:59:24;;;;;;;9.80;8.90;;;;;;;20.78;40.35;94983.59;6166592;28;106512;-77
2022/09/26 02:02:33;;;;;;;9.40;8.50;;;;;;;20.75;40.54;94968.25;6161598;28;104484;-76
2022/09/26 02:05:45;;;;;;;8.60;8.00;;;;;;;20.73;40.32;94959.78;6167464;28;103408;-76
2022/09/26 02:08:54;;;;;;;9.53;8.73;;;;;;;20.74;40.40;94956.03;6167812;28;103622;-76
2022/09/26 02:12:02;;;;;;;9.30;8.60;;;;;;;20.73;40.05;94961.66;6166894;28;102776;-76
2022/09/26 02:15:11;;;;;;;8.80;8.10;;;;;;;20.72;40.41;94950.25;6160053;28;106266;-76
2022/09/26 02:18:20;;;;;;;9.63;8.90;;;;;;;20.73;40.21;94951.81;6150372;28;103111;-75
2022/09/26 02:21:24;;;;;;;9.73;8.90;;;;;;;20.69;40.45;94950.84;6166096;28;103572;-76
2022/09/26 02:24:28;;;;;;;9.17;8.27;;;;;;;20.69;40.56;94950.84;6163509;28;103224;-76
2022/09/26 02:27:32;;;;;;;9.17;8.47;;;;;;;20.70;40.28;94947.09;6161832;28;103982;-76
2022/09/26 02:30:36;;;;;;;8.80;8.20;;;;;;;20.71;40.46;94951.31;6166538;28;107688;-77
2022/09/26 02:33:41;;;;;;;8.73;8.10;;;;;;;20.67;40.43;94942.38;6166265;28;103723;-77
2022/09/26 02:36:45;;;;;;;9.70;8.90;;;;;;;20.69;40.47;94934.88;6159893;28;107587;-75
2022/09/26 02:39:51;;;;;;;9.00;8.30;;;;;;;20.68;40.56;94921.91;6165763;28;103907;-76
2022/09/26 02:43:08;;;;;;;9.27;8.50;;;;;;;20.71;40.50;94919.41;6166343;28;103008;-75
2022/09/26 02:46:39;;;;;;;9.07;8.27;;;;;;;20.69;40.97;94924.25;6165855;28;103259;-76
2022/09/26 02:49:59;;;;;;;8.80;8.20;;;;;;;20.72;40.28;94915.66;6159235;28;105016;-78
2022/09/26 02:53:16;;;;;;;8.93;8.23;;;;;;;20.70;40.30;94915.19;6166273;28;106331;-76
2022/09/26 02:56:30;;;;;;;7.93;7.33;;;;;;;20.70;40.53;94925.81;6165119;28;102987;-76
2022/09/26 02:59:40;;;;;;;8.43;7.73;;;;;;;20.68;40.43;94922.69;6158245;28;103471;-76
2022/09/26 03:02:50;;;;;;;8.67;7.80;;;;;;;20.70;40.26;94931.16;6163892;28;102897;-77
2022/09/26 03:05:58;;;;;;;7.00;6.40;;;;;;;20.67;40.72;94926.44;6164965;28;107194;-76
2022/09/26 03:09:03;;;;;;;8.30;7.70;;;;;;;20.68;40.89;94916.59;6165514;28;104228;-77
2022/09/26 03:12:09;;;;;;;10.80;7.90;;;;;;;20.59;41.07;94908.50;6158312;28;104386;-76
2022/09/26 03:15:14;;;;;;;12.20;7.07;;;;;;;20.69;41.27;94912.84;6165722;28;104350;-76
2022/09/26 03:18:22;;;;;;;8.50;7.70;;;;;;;20.70;41.09;94914.41;6165077;28;107038;-75
2022/09/26 03:21:28;;;;;;;12.03;10.17;;;;;;;20.72;41.55;94906.91;6165595;28;103608;-77
2022/09/26 03:24:36;;;;;;;12.93;11.40;;;;;;;20.73;42.12;94917.25;6159826;28;103161;-77
2022/09/26 03:27:42;;;;;;;13.53;10.83;;;;;;;20.72;42.03;94915.66;6165505;28;105151;-76
2022/09/26 03:30:45;;;;;;;10.90;9.80;;;;;;;20.62;41.75;94897.28;6164778;28;104838;-75
2022/09/26 03:33:49;;;;;;;10.63;9.53;;;;;;;20.70;41.38;94901.91;6160309;28;104015;-77
2022/09/26 03:36:54;;;;;;;10.30;8.90;;;;;;;20.86;41.43;94897.03;6140820;28;103379;-78
2022/09/26 03:39:57;;;;;;;12.33;8.53;;;;;;;20.91;41.71;94891.56;6141225;28;104036;-76
2022/09/26 03:43:00;;;;;;;9.73;8.13;;;;;;;20.94;41.25;94896.28;6156361;28;105368;-77
2022/09/26 03:46:04;;;;;;;106.37;33.80;;;;;;;20.96;41.06;94896.00;6134536;28;104965;-76
2022/09/26 03:49:07;;;;;;;42.13;18.60;;;;;;;20.88;41.14;94885.00;6164239;28;104123;-75
2022/09/26 03:52:13;;;;;;;28.87;15.23;;;;;;;20.85;42.07;94880.28;6164558;28;103493;-76
2022/09/26 03:55:16;;;;;;;24.20;13.20;;;;;;;20.83;42.65;94877.09;6139787;28;105343;-76
2022/09/26 03:58:19;;;;;;;30.70;14.10;;;;;;;20.88;42.86;94892.19;6145392;28;102998;-75
2022/09/26 04:01:23;;;;;;;20.50;11.53;;;;;;;20.80;41.80;94891.00;6162876;28;103677;-76
2022/09/26 04:04:26;;;;;;;20.70;12.93;;;;;;;20.78;42.47;94887.88;6163589;28;103120;-75
2022/09/26 04:07:31;;;;;;;21.77;11.50;;;;;;;20.77;42.23;94882.84;6163981;28;105581;-77
2022/09/26 04:10:34;;;;;;;27.10;18.50;;;;;;;20.65;40.99;94880.72;6170609;28;103413;-76
2022/09/26 04:13:38;;;;;;;18.73;15.60;;;;;;;20.55;40.76;94883.63;6187739;28;103701;-75
2022/09/26 04:16:54;;;;;;;16.33;11.33;;;;;;;20.46;40.80;94888.06;6188547;28;103193;-77
2022/09/26 04:19:58;;;;;;;15.13;13.73;;;;;;;20.50;40.35;94881.06;6181333;28;103155;-77
2022/09/26 04:23:02;;;;;;;18.43;13.00;;;;;;;20.50;40.87;94881.06;6188792;28;107164;-77
2022/09/26 04:26:06;;;;;;;16.17;14.30;;;;;;;20.52;40.87;94886.88;6187987;28;107282;-77
2022/09/26 04:29:10;;;;;;;20.40;12.67;;;;;;;20.51;41.13;94894.06;6187997;28;104394;-76
2022/09/26 04:32:14;;;;;;;13.27;11.70;;;;;;;20.49;41.15;94895.44;6179971;28;103132;-76
2022/09/26 04:35:17;;;;;;;12.00;10.77;;;;;;;20.49;40.61;94895.44;6187568;28;103957;-76
2022/09/26 04:38:21;;;;;;;10.87;9.80;;;;;;;20.41;40.41;94896.16;6187976;28;107184;-76
2022/09/26 04:41:26;;;;;;;11.63;10.53;;;;;;;20.43;40.76;94916.03;6187545;28;104699;-76
2022/09/26 04:44:29;;;;;;;10.17;8.40;;;;;;;20.40;40.43;94910.53;6181557;28;103555;-76
2022/09/26 04:47:33;;;;;;;10.93;9.60;;;;;;;20.43;40.91;94899.28;6187514;28;103412;-76
2022/09/26 04:50:36;;;;;;;9.37;8.47;;;;;;;20.40;40.25;94905.19;6188106;28;106468;-77
2022/09/26 04:53:41;;;;;;;11.03;10.03;;;;;;;20.43;40.39;94889.44;6182564;28;103113;-77
2022/09/26 04:56:45;;;;;;;21.73;19.73;;;;;;;20.41;40.63;94891.63;6186260;28;106108;-76
2022/09/26 04:59:48;;;;;;;17.83;16.07;;;;;;;20.40;40.85;94889.25;6187847;28;103683;-76
2022/09/26 05:02:51;;;;;;;15.30;13.80;;;;;;;20.35;40.58;94894.69;6186951;28;103097;-76
2022/09/26 05:05:54;;;;;;;13.10;11.90;;;;;;;20.35;40.60;94897.34;6181918;28;104135;-76
2022/09/26 05:08:59;;;;;;;12.53;11.43;;;;;;;20.38;40.76;94899.41;6187659;28;103641;-76
2022/09/26 05:12:03;;;;;;;12.13;10.93;;;;;;;20.32;40.62;94896.81;6187702;28;102776;-76
2022/09/26 05:15:08;;;;;;;11.30;10.07;;;;;;;20.33;40.63;94884.34;6187913;28;104088;-76
2022/09/26 05:18:12;;;;;;;10.43;9.43;;;;;;;20.34;40.69;94879.84;6180790;28;103396;-76
2022/09/26 05:21:15;;;;;;;9.70;8.80;;;;;;;20.32;40.62;94867.59;6187652;28;103003;-76
2022/09/26 05:27:41;;;;;;;26.23;23.63;;;;;;;20.32;40.31;94866.81;6187652;28;103130;-77
2022/09/26 05:30:44;;;;;;;14.87;13.10;;;;;;;20.27;40.64;94864.28;6190912;28;104464;-77
2022/09/26 05:33:49;;;;;;;13.03;11.07;;;;;;;20.08;41.17;94871.56;6190615;28;103398;-76
2022/09/26 05:36:52;;;;;;;11.40;10.30;;;;;;;20.11;41.15;94868.28;6192394;28;103678;-77
2022/09/26 05:43:32;;;;;;;10.30;9.40;;;;;;;20.27;40.84;94864.28;6140424;28;104981;-78
2022/09/26 05:46:37;;;;;;;10.90;9.80;;;;;;;20.26;41.00;94857.38;6191617;28;107492;-76
2022/09/26 05:49:40;;;;;;;10.13;9.13;;;;;;;20.25;40.94;94845.97;6190878;28;103879;-78
2022/09/26 05:52:45;;;;;;;9.70;8.70;;;;;;;20.22;41.16;94856.38;6188097;28;104028;-81
2022/09/26 05:56:04;;;;;;;12.40;11.10;;;;;;;20.28;41.19;94873.81;6191089;28;103093;-76
2022/09/26 05:59:09;;;;;;;14.10;11.60;;;;;;;20.31;41.01;94881.19;6191409;28;104130;-76
2022/09/26 06:02:13;;;;;;;12.27;10.40;;;;;;;20.30;41.71;94875.09;6184081;28;103562;-76
2022/09/26 06:05:22;;;;;;;13.53;10.53;;;;;;;20.29;41.33;94870.06;6190509;28;104981;-77
2022/09/26 06:08:26;;;;;;;13.77;12.03;;;;;;;20.31;41.25;94871.34;6191055;28;104141;-76
2022/09/26 06:11:30;;;;;;;17.97;11.50;;;;;;;20.34;41.29;94879.84;6190589;28;103368;-76
2022/09/26 06:14:33;;;;;;;12.20;9.80;;;;;;;20.29;41.43;94867.41;6184533;28;105425;-76
2022/09/26 06:17:37;;;;;;;18.10;10.57;;;;;;;20.40;41.41;94891.91;6190883;28;104145;-76
2022/09/26 06:20:40;;;;;;;16.33;9.87;;;;;;;20.45;41.63;94889.13;6190446;28;103185;-76
2022/09/26 06:23:44;;;;;;;14.90;10.63;;;;;;;20.44;41.62;94890.22;6190249;28;103705;-78
2022/09/26 06:26:49;;;;;;;20.30;10.80;;;;;;;20.45;41.66;94887.28;6185799;28;104567;-75
2022/09/26 06:29:52;;;;;;;17.23;10.40;;;;;;;20.44;41.68;94877.72;6185681;28;103516;-76
2022/09/26 06:32:56;;;;;;;18.67;10.13;;;;;;;20.43;41.64;94880.69;6185991;28;103401;-75
2022/09/26 06:36:03;;;;;;;18.93;10.57;;;;;;;20.44;41.49;94892.88;6183031;28;103339;-75
2022/09/26 06:39:06;;;;;;;16.07;10.10;;;;;;;20.42;41.58;94895.06;6189300;28;103224;-75
2022/09/26 06:42:11;;;;;;;22.33;16.80;;;;;;;20.40;41.50;94879.41;6190409;28;105230;-76
2022/09/26 06:45:15;;;;;;;30.43;23.63;;;;;;;20.46;41.10;94877.44;6190528;28;103584;-75
2022/09/26 06:48:21;;;;;;;33.83;21.27;;;;;;;20.64;41.27;94868.50;6183783;28;105428;-76
2022/09/26 06:51:26;;;;;;;19.90;14.20;;;;;;;20.86;41.34;94859.78;6190229;28;106321;-76
2022/09/26 06:54:29;;;;;;;21.20;13.27;;;;;;;21.06;41.15;94864.66;6189107;28;104004;-76
2022/09/26 06:57:39;;;;;;;15.90;12.07;;;;;;;21.12;41.04;94873.28;6190588;28;103585;-76
2022/09/26 07:00:42;;;;;;;14.93;10.87;;;;;;;21.17;41.02;94871.31;6184012;28;103501;-74
2022/09/26 07:03:45;;;;;;;15.87;11.30;;;;;;;21.18;40.21;94878.19;6189879;28;103561;-76
2022/09/26 07:06:50;;;;;;;13.17;11.93;;;;;;;21.17;40.10;94875.81;6189819;28;105939;-75
2022/09/26 07:09:55;;;;;;;16.90;13.73;;;;;;;21.23;40.31;94882.59;6185794;28;103767;-75
2022/09/26 07:13:03;;;;;;;13.53;10.50;;;;;;;21.28;39.75;94882.47;6189942;28;102900;-74
2022/09/26 07:16:06;;;;;;;10.57;9.43;;;;;;;21.30;39.47;94880.28;6189879;28;103188;-75
2022/09/26 07:19:11;;;;;;;9.80;8.90;;;;;;;21.38;39.43;94876.13;6189861;28;102991;-74
2022/09/26 07:22:15;;;;;;;10.50;8.27;;;;;;;21.42;39.25;94877.06;6183960;28;103366;-75
2022/09/26 07:25:20;;;;;;;11.00;8.07;;;;;;;21.45;39.36;94877.25;6190724;28;103510;-75
2022/09/26 07:28:26;;;;;;;8.37;7.57;;;;;;;21.53;38.86;94875.72;6191315;28;103232;-76
2022/09/26 07:31:30;;;;;;;8.23;7.43;;;;;;;21.50;39.21;94871.00;6190280;28;102923;-76
2022/09/26 07:34:34;;;;;;;8.63;7.37;;;;;;;21.48;39.15;94881.16;6182707;28;103008;-77
2022/09/26 07:37:37;;;;;;;7.13;6.43;;;;;;;21.43;38.94;94881.31;6188895;28;102991;-76
2022/09/26 07:40:41;;;;;;;8.50;6.80;;;;;;;21.39;39.36;94861.72;6190263;28;103491;-76
2022/09/26 07:43:46;;;;;;;11.13;6.60;;;;;;;21.35;39.23;94868.75;6186249;28;105589;-77
2022/09/26 07:50:46;;;;;;;6.47;5.80;;;;;;;21.41;39.10;94875.50;6138343;28;105078;-77
2022/09/26 07:53:50;;;;;;;8.93;8.03;;;;;;;21.45;38.77;94874.56;6138288;28;103037;-76
2022/09/26 07:56:54;;;;;;;10.90;9.80;;;;;;;21.46;39.11;94860.19;6181756;28;104026;-76
2022/09/26 08:00:00;;;;;;;10.77;9.67;;;;;;;21.43;39.12;94850.16;6190470;28;103048;-76
2022/09/26 08:03:04;;;;;;;11.13;9.67;;;;;;;21.47;39.37;94837.78;6189960;28;103026;-76
2022/09/26 08:06:08;;;;;;;11.80;8.20;;;;;;;21.53;38.58;94827.81;6186797;28;103310;-76
2022/09/26 08:09:12;;;;;;;8.03;7.23;;;;;;;21.61;38.96;94842.22;6184600;28;103465;-75
2022/09/26 08:12:16;;;;;;;7.83;6.97;;;;;;;21.64;38.83;94837.06;6189157;28;103484;-76
2022/09/26 08:15:21;;;;;;;6.97;6.37;;;;;;;21.71;38.55;94828.66;6188417;28;103267;-76
2022/09/26 08:18:24;;;;;;;12.13;7.50;;;;;;;21.77;38.73;94814.09;6182662;28;108373;-76
2022/09/26 08:21:27;;;;;;;9.00;7.90;;;;;;;21.77;38.89;94798.13;6188564;28;106488;-75
2022/09/26 08:24:30;;;;;;;8.70;7.10;;;;;;;21.82;39.01;94811.31;6188694;28;106331;-76
2022/09/26 08:27:34;;;;;;;10.23;7.60;;;;;;;21.82;38.42;94819.31;6189047;28;106534;-75
2022/09/26 08:30:39;;;;;;;9.00;8.10;;;;;;;21.85;38.55;94800.06;6183561;28;105863;-76
2022/09/26 08:33:43;;;;;;;7.63;6.67;;;;;;;21.89;38.47;94786.91;6188588;28;104274;-75
2022/09/26 08:36:51;;;;;;;8.47;7.67;;;;;;;21.95;38.47;94791.75;6193776;28;103339;-76
2022/09/26 08:39:54;;;;;;;8.50;7.70;;;;;;;21.98;38.62;94777.03;6185867;28;106689;-76
2022/09/26 08:43:06;;;;;;;8.10;7.30;;;;;;;21.96;39.21;94774.69;6185323;28;103976;-77
2022/09/26 08:46:41;;;;;;;8.13;7.33;;;;;;;22.06;38.88;94794.94;6189136;28;103042;-77
2022/09/26 08:49:58;;;;;;;6.93;6.33;;;;;;;22.08;38.91;94782.84;6188684;28;104337;-76
2022/09/26 08:53:07;;;;;;;7.37;6.67;;;;;;;22.07;39.09;94783.97;6181048;28;103108;-76
2022/09/26 08:56:19;;;;;;;7.63;6.80;;;;;;;22.07;38.82;94777.84;6188918;28;103516;-77
2022/09/26 08:59:29;;;;;;;7.53;6.83;;;;;;;22.10;39.22;94774.56;6188555;28;104883;-77
2022/09/26 09:02:39;;;;;;;7.80;6.57;;;;;;;22.13;39.17;94778.47;6187808;28;104138;-77
2022/09/26 09:05:45;;;;;;;8.53;6.60;;;;;;;22.16;38.69;94785.84;6184599;28;103450;-77
2022/09/26 09:08:51;;;;;;;7.60;6.90;;;;;;;22.13;38.83;94778.47;6188896;28;103357;-75
2022/09/26 09:12:08;;;;;;;7.93;7.13;;;;;;;22.16;38.56;94767.19;6188415;28;102987;-76
2022/09/26 09:15:31;;;;;;;7.30;6.60;;;;;;;22.16;39.00;94777.84;6183160;28;103287;-78
2022/09/26 09:18:46;;;;;;;8.17;7.37;;;;;;;22.19;38.66;94771.91;6189052;28;103674;-75
2022/09/26 09:22:06;;;;;;;8.63;7.80;;;;;;;22.18;39.08;94759.66;6188518;28;104739;-76
2022/09/26 09:25:16;;;;;;;7.80;7.03;;;;;;;22.21;39.08;94759.06;6188084;28;103243;-76
2022/09/26 09:28:33;;;;;;;7.77;7.07;;;;;;;22.24;38.98;94766.41;6184987;28;103886;-76
2022/09/26 09:31:40;;;;;;;7.73;7.03;;;;;;;22.28;38.83;94770.81;6189121;28;103488;-76
2022/09/26 09:34:49;;;;;;;7.67;7.03;;;;;;;22.29;38.38;94763.59;6188694;28;103494;-78
2022/09/26 09:37:56;;;;;;;7.67;7.07;;;;;;;22.29;38.85;94766.25;6182105;28;103204;-76
2022/09/26 09:41:06;;;;;;;8.47;7.67;;;;;;;22.28;38.98;94765.47;6188555;28;102797;-77
2022/09/26 09:44:28;;;;;;;8.60;7.80;;;;;;;22.28;38.59;94762.81;6187485;28;105321;-77
2022/09/26 09:47:38;;;;;;;8.63;7.77;;;;;;;22.26;38.74;94751.69;6188202;28;103076;-76
2022/09/26 09:50:54;;;;;;;8.37;7.67;;;;;;;22.25;38.82;94744.00;6181622;28;103541;-77
2022/09/26 09:54:30;;;;;;;8.60;7.90;;;;;;;22.25;38.81;94739.44;6187413;28;103562;-75
2022/09/26 09:58:15;;;;;;;7.93;7.13;;;;;;;22.24;38.88;94742.44;6186899;28;105169;-76
2022/09/26 10:01:24;;;;;;;7.70;6.60;;;;;;;22.19;38.44;94726.59;6180618;28;104444;-77
2022/09/26 10:04:38;;;;;;;7.37;6.73;;;;;;;22.14;38.53;94718.75;6187123;28;105158;-76
2022/09/26 10:07:43;;;;;;;7.53;6.70;;;;;;;22.08;39.14;94707.47;6187051;28;103680;-77
2022/09/26 10:10:54;;;;;;;7.20;6.50;;;;;;;22.05;38.89;94703.53;6185172;28;103019;-79
2022/09/26 10:14:03;;;;;;;7.70;6.67;;;;;;;22.07;39.27;94695.25;6187805;28;107556;-78
2022/09/26 10:17:19;;;;;;;6.30;5.80;;;;;;;22.08;38.88;94704.78;6191078;28;103303;-77
2022/09/26 10:20:39;;;;;;;6.30;5.70;;;;;;;22.07;39.30;94711.22;6191699;28;106703;-76
2022/09/26 10:23:48;;;;;;;7.33;6.63;;;;;;;22.05;39.07;94708.88;6184845;28;104618;-77
2022/09/26 10:26:51;;;;;;;6.90;6.30;;;;;;;22.00;39.19;94711.69;6192321;28;102971;-76
2022/09/26 10:29:59;;;;;;;6.63;6.13;;;;;;;21.96;39.39;94705.41;6191087;28;103514;-77
2022/09/26 10:33:04;;;;;;;8.27;7.57;;;;;;;21.93;39.03;94695.38;6191563;28;103313;-76
2022/09/26 10:36:18;;;;;;;7.80;7.10;;;;;;;21.96;39.59;94704.63;6185477;28;103311;-76
2022/09/26 10:42:46;;;;;;;11.03;10.07;;;;;;;21.90;39.21;94677.38;6191738;28;103574;-75
2022/09/26 10:45:53;;;;;;;11.63;10.67;;;;;;;21.87;39.44;94671.88;6185373;28;105193;-76
2022/09/26 10:49:01;;;;;;;13.07;11.97;;;;;;;21.86;39.58;94665.78;6191102;28;103735;-76
2022/09/26 10:52:10;;;;;;;14.40;13.20;;;;;;;21.85;39.87;94669.53;6190182;28;103527;-76
2022/09/26 10:55:26;;;;;;;16.20;14.80;;;;;;;21.83;39.52;94658.38;6189210;28;103493;-76
2022/09/26 10:58:31;;;;;;;17.53;16.03;;;;;;;21.85;39.45;94656.22;6183663;28;106295;-76
2022/09/26 11:01:41;;;;;;;18.73;17.17;;;;;;;21.85;39.44;94661.56;6189204;28;103441;-76
2022/09/26 11:08:09;;;;;;;24.10;21.80;;;;;;;21.84;39.48;94643.19;6184558;28;103261;-76
2022/09/26 11:11:20;;;;;;;26.80;24.50;;;;;;;21.84;39.35;94635.97;6187816;28;104495;-78
2022/09/26 11:14:25;;;;;;;28.90;26.40;;;;;;;21.83;40.07;94626.44;6188779;28;105052;-76
2022/09/26 11:17:43;;;;;;;29.60;27.00;;;;;;;21.81;39.80;94631.25;6188435;28;106072;-75
2022/09/26 11:20:50;;;;;;;32.17;29.20;;;;;;;21.81;39.84;94626.72;6181761;28;105420;-76
2022/09/26 11:24:01;;;;;;;28.70;26.07;;;;;;;21.78;40.08;94622.03;6187885;28;104146;-77
2022/09/26 11:27:21;;;;;;;26.77;24.30;;;;;;;21.83;39.81;94620.31;6188977;28;103103;-76
2022/09/26 11:30:26;;;;;;;26.53;24.13;;;;;;;21.80;40.01;94619.03;6186096;28;103904;-76
2022/09/26 11:33:29;;;;;;;26.37;24.07;;;;;;;21.81;39.84;94620.59;6184575;28;103634;-75
2022/09/26 11:36:51;;;;;;;24.53;22.23;;;;;;;21.81;40.42;94615.28;6187838;28;103403;-76
2022/09/26 11:40:15;;;;;;;24.23;22.23;;;;;;;21.79;40.17;94609.47;6188569;28;104359;-75
2022/09/26 11:43:34;;;;;;;25.33;23.17;;;;;;;21.77;40.23;94593.81;6183684;28;103985;-76
2022/09/26 11:46:47;;;;;;;24.63;22.53;;;;;;;21.77;39.74;94585.03;6189310;28;103145;-76
2022/09/26 11:50:11;;;;;;;24.33;22.30;;;;;;;21.77;39.79;94585.84;6188934;28;102983;-76
2022/09/26 11:53:41;;;;;;;27.93;25.37;;;;;;;21.77;40.11;94582.38;6184494;28;104718;-77
2022/09/26 11:56:55;;;;;;;28.73;26.10;;;;;;;21.75;39.90;94569.38;6139199;28;1417058;-76
2022/09/26 12:00:14;;;;;;;29.07;26.57;;;;;;;21.74;40.39;94567.03;6189719;28;102923;-77
2022/09/26 12:03:49;;;;;;;23.50;21.47;;;;;;;21.78;40.41;94562.66;6190876;28;103487;-80
2022/09/26 12:07:00;;;;;;;19.43;17.83;;;;;;;21.81;40.44;94546.81;6185823;28;103080;-79
2022/09/26 12:10:18;;;;;;;21.50;19.70;;;;;;;21.82;40.43;94544.97;6191982;28;103300;-79
2022/09/26 12:13:34;;;;;;;19.87;18.20;;;;;;;21.84;40.33;94558.75;6190805;28;103684;-83
2022/09/26 12:16:46;;;;;;;19.93;18.33;;;;;;;21.85;40.49;94549.69;6185119;28;105959;-81
2022/09/26 12:19:57;;;;;;;18.80;17.10;;;;;;;21.85;40.59;94543.56;6190258;28;104350;-81
2022/09/26 12:23:11;;;;;;;17.80;16.50;;;;;;;21.84;40.27;94536.66;6192187;28;102582;-80
2022/09/26 12:26:20;;;;;;;19.47;17.67;;;;;;;21.84;39.92;94541.97;6191199;28;103589;-80
2022/09/26 12:29:31;;;;;;;17.83;16.10;;;;;;;21.83;40.41;94535.09;6184684;28;103888;-78
2022/09/26 12:32:57;;;;;;;16.53;15.07;;;;;;;21.80;40.20;94533.81;6191400;28;104162;-80
2022/09/26 12:36:11;;;;;;;16.93;15.27;;;;;;;21.80;40.49;94537.25;6189937;28;105327;-79
2022/09/26 12:39:33;;;;;;;17.03;15.47;;;;;;;21.82;40.26;94531.63;6184049;28;103974;-79
2022/09/26 12:43:03;;;;;;;15.47;14.30;;;;;;;21.81;40.48;94535.38;6190402;28;103792;-81
2022/09/26 12:46:29;;;;;;;15.90;14.50;;;;;;;21.78;40.39;94520.81;6189228;28;102878;-79
2022/09/26 12:49:48;;;;;;;16.53;15.00;;;;;;;21.77;40.05;94511.25;6187451;28;102924;-79
2022/09/26 12:53:09;;;;;;;16.07;14.63;;;;;;;21.80;40.67;94509.84;6186531;28;103553;-79
2022/09/26 12:56:22;;;;;;;14.63;13.40;;;;;;;21.79;40.50;94494.97;6189512;28;105138;-79
2022/09/26 12:59:42;;;;;;;15.27;14.00;;;;;;;21.78;40.79;94501.38;6189199;28;104059;-79
2022/09/26 13:03:23;;;;;;;14.97;13.57;;;;;;;21.79;40.62;94494.97;6182144;28;103858;-78
2022/09/26 13:06:58;;;;;;;14.97;13.77;;;;;;;21.79;40.09;94492.28;6166692;28;103426;-79
2022/09/26 13:10:47;;;;;;;14.03;12.73;;;;;;;21.78;40.38;94485.41;6190962;28;103187;-78
2022/09/26 13:18:20;;;;;;;14.60;13.40;;;;;;;21.77;40.38;94484.63;6189387;28;103419;-80
2022/09/26 13:21:53;;;;;;;13.60;12.47;;;;;;;21.77;40.77;94481.19;6188868;28;102798;-79
2022/09/26 13:25:23;;;;;;;13.33;12.23;;;;;;;21.76;40.73;94479.63;6183976;28;102794;-79
2022/09/26 13:33:43;;;;;;;13.57;12.47;;;;;;;21.77;40.47;94473.19;6189266;28;102675;-78
2022/09/26 13:37:08;;;;;;;12.77;11.77;;;;;;;21.76;40.28;94466.31;6185854;28;103092;-78
2022/09/26 13:40:53;;;;;;;14.47;13.27;;;;;;;21.87;40.88;94470.22;6189604;28;103050;-79
2022/09/26 13:44:12;;;;;;;12.93;11.93;;;;;;;21.91;40.97;94471.16;6191037;28;102974;-78
2022/09/26 13:47:29;;;;;;;13.00;11.80;;;;;;;21.93;41.08;94466.28;6185149;28;103458;-80
2022/09/26 13:50:40;;;;;;;12.93;11.90;;;;;;;21.85;40.98;94461.78;6192946;28;104353;-80
2022/09/26 13:53:56;;;;;;;12.87;11.87;;;;;;;21.80;40.85;94459.22;6195146;28;102926;-80
2022/09/26 13:57:00;;;;;;;12.30;11.37;;;;;;;21.78;40.46;94459.56;6193704;28;104684;-81
2022/09/26 14:00:28;;;;;;;13.43;12.33;;;;;;;21.79;41.06;94457.66;6190276;28;104425;-80
2022/09/26 14:03:41;;;;;;;13.50;12.30;;;;;;;21.75;40.91;94456.75;6192890;28;102901;-80
2022/09/26 14:10:40;;;;;;;13.10;12.03;;;;;;;21.78;40.96;94453.44;6185269;28;103670;-78
2022/09/26 14:13:44;;;;;;;11.93;11.03;;;;;;;21.76;41.05;94453.00;6194251;28;103194;-81
2022/09/26 14:16:49;;;;;;;11.90;10.83;;;;;;;21.76;40.96;94450.31;6195073;28;103019;-79
2022/09/26 14:19:56;;;;;;;13.00;12.00;;;;;;;21.75;40.65;94443.44;6192316;28;103115;-80
2022/09/26 14:23:02;;;;;;;11.53;10.53;;;;;;;21.73;40.85;94438.44;6185847;28;102792;-84
2022/09/26 14:26:08;;;;;;;12.00;11.00;;;;;;;21.75;41.00;94443.44;6194827;28;102632;-83
2022/09/26 14:29:25;;;;;;;12.50;11.30;;;;;;;21.75;40.61;94448.75;6195889;28;104064;-82
2022/09/26 14:32:36;;;;;;;12.00;11.00;;;;;;;21.70;40.84;94438.28;6193054;28;102902;-80
2022/09/26 14:35:42;;;;;;;11.00;10.10;;;;;;;21.73;40.84;94437.66;6195323;28;103523;-81
2022/09/26 14:38:46;;;;;;;11.70;10.70;;;;;;;21.71;40.72;94437.19;6195554;28;103094;-81
2022/09/26 14:41:53;;;;;;;12.77;11.77;;;;;;;21.74;40.66;94439.22;6193638;28;103072;-82
2022/09/26 14:44:59;;;;;;;12.60;11.50;;;;;;;21.72;40.71;94450.19;6190581;28;103419;-81
2022/09/26 14:48:19;;;;;;;13.03;11.93;;;;;;;21.72;41.26;94430.75;6197321;28;104854;-81
2022/09/26 14:51:30;;;;;;;13.90;12.73;;;;;;;21.66;41.21;94432.78;6173038;28;102843;-77
2022/09/26 14:54:38;;;;;;;13.20;12.10;;;;;;;21.64;41.05;94436.88;6165463;28;103500;-77
2022/09/26 14:57:43;;;;;;;13.70;12.60;;;;;;;21.65;41.39;94438.44;6163744;28;103759;-78
2022/09/26 15:00:49;;;;;;;15.47;14.07;;;;;;;21.63;41.38;94440.63;6166732;28;103404;-78